createdAt,value
2018-06-15T00:00:49.404Z,60.00
2018-06-15T00:03:17.649Z,60.00
2018-06-15T00:05:46.962Z,59.90
2018-06-15T00:08:15.213Z,59.90
2018-06-15T00:10:43.544Z,59.80
2018-06-15T00:13:11.830Z,59.80
2018-06-15T00:15:40.076Z,60.10
2018-06-15T00:18:08.319Z,60.70
2018-06-15T00:20:37.343Z,61.10
2018-06-15T00:23:05.605Z,61.10
2018-06-15T00:25:34.020Z,61.50
2018-06-15T00:28:02.259Z,61.30
2018-06-15T00:30:30.515Z,62.00
2018-06-15T00:32:59.546Z,61.50
2018-06-15T00:35:27.807Z,61.40
2018-06-15T00:37:56.069Z,61.30
2018-06-15T00:40:27.676Z,61.30
2018-06-15T00:42:55.944Z,61.20
2018-06-15T00:45:24.196Z,61.40
2018-06-15T00:47:52.461Z,61.40
2018-06-15T00:50:20.730Z,61.40
2018-06-15T00:52:48.996Z,61.30
2018-06-15T00:55:17.262Z,61.40
2018-06-15T00:57:46.276Z,61.60
2018-06-15T01:00:14.544Z,61.60
2018-06-15T01:02:42.820Z,61.90
2018-06-15T01:05:11.081Z,62.70
2018-06-15T01:07:40.107Z,62.40
2018-06-15T01:10:08.357Z,62.30
2018-06-15T01:12:36.632Z,62.30
2018-06-15T01:15:04.907Z,62.00
2018-06-15T01:17:33.168Z,62.00
2018-06-15T01:20:02.344Z,62.00
2018-06-15T01:22:30.605Z,62.00
2018-06-15T01:24:59.027Z,61.90
2018-06-15T01:27:28.050Z,61.80
2018-06-15T01:29:56.290Z,61.70
2018-06-15T01:32:25.330Z,61.70
2018-06-15T01:34:53.588Z,61.70
2018-06-15T01:37:21.959Z,61.80
2018-06-15T01:39:50.226Z,61.30
2018-06-15T01:42:19.235Z,61.40
2018-06-15T01:44:47.610Z,61.40
2018-06-15T01:47:15.863Z,61.50
2018-06-15T01:49:44.124Z,61.60
2018-06-15T01:52:13.155Z,62.30
2018-06-15T01:54:41.418Z,61.70
2018-06-15T01:57:09.694Z,61.60
2018-06-15T01:59:37.947Z,61.70
2018-06-15T02:02:07.002Z,61.90
2018-06-15T02:04:35.244Z,61.90
2018-06-15T02:07:03.504Z,61.70
2018-06-15T02:09:31.931Z,61.90
2018-06-15T02:12:00.595Z,61.90
2018-06-15T02:14:28.844Z,62.00
2018-06-15T02:16:57.112Z,62.40
2018-06-15T02:19:26.145Z,62.50
2018-06-15T02:21:54.401Z,62.50
2018-06-15T02:24:22.678Z,62.60
2018-06-15T02:26:51.739Z,61.80
2018-06-15T02:29:20.773Z,62.00
2018-06-15T02:31:49.050Z,62.00
2018-06-15T02:34:17.286Z,61.80
2018-06-15T02:36:46.305Z,61.60
2018-06-15T02:39:14.675Z,61.60
2018-06-15T02:41:42.936Z,61.70
2018-06-15T02:44:11.194Z,61.60
2018-06-15T02:46:40.243Z,61.80
2018-06-15T02:49:08.492Z,61.70
2018-06-15T02:51:36.758Z,61.70
2018-06-15T02:54:05.012Z,61.80
2018-06-15T02:56:34.411Z,61.90
2018-06-15T02:59:02.614Z,61.90
2018-06-15T03:01:30.863Z,62.00
2018-06-15T03:03:59.907Z,62.00
2018-06-15T03:06:28.161Z,62.00
2018-06-15T03:08:56.427Z,61.70
2018-06-15T03:11:24.684Z,61.80
2018-06-15T03:13:53.703Z,61.70
2018-06-15T03:16:22.051Z,61.70
2018-06-15T03:18:51.082Z,61.70
2018-06-15T03:21:20.475Z,61.70
2018-06-15T03:23:48.738Z,61.60
2018-06-15T03:26:17.026Z,61.50
2018-06-15T03:28:45.259Z,61.60
2018-06-15T03:31:13.520Z,61.60
2018-06-15T03:33:41.780Z,61.70
2018-06-15T03:36:10.032Z,61.70
2018-06-15T03:38:38.301Z,62.00
2018-06-15T03:41:06.546Z,62.10
2018-06-15T03:43:35.558Z,62.40
2018-06-15T03:46:03.931Z,62.30
2018-06-15T03:48:32.146Z,62.40
2018-06-15T03:51:00.524Z,62.60
2018-06-15T03:53:29.541Z,62.70
2018-06-15T03:55:57.831Z,62.70
2018-06-15T03:58:26.879Z,63.00
2018-06-15T04:00:55.135Z,62.90
2018-06-15T04:03:23.402Z,63.00
2018-06-15T04:05:51.665Z,63.10
2018-06-15T04:08:19.937Z,63.30
2018-06-15T04:10:48.954Z,63.60
2018-06-15T04:13:17.234Z,63.50
2018-06-15T04:15:46.227Z,63.70
2018-06-15T04:18:14.478Z,63.70
2018-06-15T04:20:42.749Z,63.70
2018-06-15T04:23:11.770Z,63.70
2018-06-15T04:25:40.034Z,63.70
2018-06-15T04:28:08.307Z,63.70
2018-06-15T04:30:36.564Z,63.70
2018-06-15T04:33:05.590Z,64.10
2018-06-15T04:35:33.845Z,64.10
2018-06-15T04:38:02.097Z,63.80
2018-06-15T04:40:31.123Z,63.90
2018-06-15T04:42:59.393Z,63.90
2018-06-15T04:45:27.654Z,64.00
2018-06-15T04:47:55.940Z,63.40
2018-06-15T04:50:24.206Z,63.30
2018-06-15T04:52:52.460Z,63.90
2018-06-15T04:55:20.733Z,64.20
2018-06-15T04:57:48.980Z,63.50
2018-06-15T05:00:17.229Z,63.30
2018-06-15T05:02:45.498Z,62.60
2018-06-15T05:05:13.753Z,62.40
2018-06-15T05:07:42.875Z,62.90
2018-06-15T05:10:11.134Z,62.90
2018-06-15T05:12:39.403Z,62.80
2018-06-15T05:15:07.663Z,62.40
2018-06-15T05:17:36.677Z,62.60
2018-06-15T05:20:05.087Z,62.40
2018-06-15T05:22:34.791Z,61.70
2018-06-15T05:25:03.388Z,61.60
2018-06-15T05:27:31.642Z,61.30
2018-06-15T05:30:01.489Z,61.00
2018-06-15T05:32:29.738Z,60.90
2018-06-15T05:34:57.973Z,61.60
2018-06-15T05:37:26.252Z,60.70
2018-06-15T05:39:54.524Z,61.10
2018-06-15T05:42:22.856Z,60.60
2018-06-15T05:44:51.108Z,61.70
2018-06-15T05:47:19.355Z,59.00
2018-06-15T05:49:47.619Z,60.30
2018-06-15T05:52:15.904Z,60.40
2018-06-15T05:54:44.176Z,60.40
2018-06-15T05:57:12.433Z,59.70
2018-06-15T05:59:41.568Z,57.30
2018-06-15T06:02:09.803Z,58.00
2018-06-15T06:04:38.814Z,57.50
2018-06-15T06:07:07.275Z,57.50
2018-06-15T06:09:36.278Z,58.60
2018-06-15T06:12:05.395Z,58.30
2018-06-15T06:14:34.413Z,58.40
2018-06-15T06:17:02.654Z,58.30
2018-06-15T06:19:30.923Z,57.90
2018-06-15T06:21:59.175Z,58.00
2018-06-15T06:24:28.525Z,57.70
2018-06-15T06:26:56.788Z,57.60
2018-06-15T06:29:25.046Z,58.80
2018-06-15T06:31:54.074Z,57.40
2018-06-15T06:34:22.315Z,58.20
2018-06-15T06:36:50.649Z,58.40
2018-06-15T06:39:18.891Z,58.30
2018-06-15T06:41:47.368Z,57.90
2018-06-15T06:44:15.664Z,58.50
2018-06-15T06:46:43.913Z,57.30
2018-06-15T06:49:12.239Z,57.10
2018-06-15T06:51:40.445Z,57.10
2018-06-15T06:54:09.522Z,55.80
2018-06-15T06:56:37.749Z,55.70
2018-06-15T06:59:05.995Z,55.00
2018-06-15T07:01:34.255Z,53.80
2018-06-15T07:04:03.298Z,54.50
2018-06-15T07:06:31.567Z,54.60
2018-06-15T07:08:59.829Z,54.30
2018-06-15T07:11:28.113Z,53.70
2018-06-15T07:13:56.372Z,52.40
2018-06-15T07:16:24.694Z,52.60
2018-06-15T07:18:52.953Z,51.30
2018-06-15T07:21:21.232Z,51.50
2018-06-15T07:23:50.267Z,50.70
2018-06-15T07:26:19.275Z,51.20
2018-06-15T07:28:47.535Z,51.10
2018-06-15T07:31:16.576Z,51.50
2018-06-15T07:33:44.847Z,51.40
2018-06-15T07:36:13.116Z,52.40
2018-06-15T07:38:41.373Z,51.60
2018-06-15T07:41:10.693Z,50.90
2018-06-15T07:43:38.916Z,51.00
2018-06-15T07:46:08.042Z,52.00
2018-06-15T07:48:37.746Z,52.00
2018-06-15T07:51:06.002Z,52.00
2018-06-15T07:53:35.037Z,53.40
2018-06-15T07:56:03.279Z,53.40
2018-06-15T07:58:32.311Z,52.20
2018-06-15T08:01:00.568Z,52.10
2018-06-15T08:03:28.829Z,51.20
2018-06-15T08:05:57.091Z,52.80
2018-06-15T08:08:26.117Z,51.20
2018-06-15T08:10:54.378Z,51.40
2018-06-15T08:13:22.635Z,50.40
2018-06-15T08:15:51.682Z,50.40
2018-06-15T08:18:19.923Z,50.40
2018-06-15T08:20:48.181Z,51.40
2018-06-15T08:23:16.458Z,51.30
2018-06-15T08:25:45.463Z,51.30
2018-06-15T08:28:13.720Z,51.20
2018-06-15T08:30:42.946Z,50.40
2018-06-15T08:33:11.189Z,50.40
2018-06-15T08:35:39.451Z,51.70
2018-06-15T08:38:07.807Z,49.70
2018-06-15T08:40:36.051Z,49.40
2018-06-15T08:43:04.321Z,47.80
2018-06-15T08:45:32.569Z,50.40
2018-06-15T08:48:01.593Z,47.60
2018-06-15T08:50:29.830Z,47.60
2018-06-15T08:52:58.078Z,48.20
2018-06-15T08:55:26.369Z,48.10
2018-06-15T08:57:55.386Z,48.50
2018-06-15T09:00:23.641Z,48.30
2018-06-15T09:02:52.663Z,46.70
2018-06-15T09:05:20.926Z,46.60
2018-06-15T09:07:49.183Z,45.70
2018-06-15T09:10:18.193Z,44.70
2018-06-15T09:12:46.460Z,44.90
2018-06-15T09:15:15.490Z,45.80
2018-06-15T09:17:43.736Z,45.80
2018-06-15T09:20:12.768Z,46.90
2018-06-15T09:22:41.020Z,46.90
2018-06-15T09:25:09.274Z,47.70
2018-06-15T09:27:38.290Z,44.80
2018-06-15T09:30:06.557Z,44.90
2018-06-15T09:32:34.797Z,43.80
2018-06-15T09:35:03.062Z,42.80
2018-06-15T09:37:31.344Z,41.80
2018-06-15T09:39:59.603Z,43.10
2018-06-15T09:42:27.851Z,45.00
2018-06-15T09:44:56.108Z,42.60
2018-06-15T09:47:24.380Z,42.20
2018-06-15T09:49:52.858Z,42.40
2018-06-15T09:52:21.129Z,42.10
2018-06-15T09:54:50.149Z,42.60
2018-06-15T09:57:18.402Z,42.60
2018-06-15T09:59:46.664Z,42.60
2018-06-15T10:02:15.887Z,40.60
2018-06-15T10:04:44.130Z,40.50
2018-06-15T10:07:13.142Z,42.20
2018-06-15T10:09:41.419Z,42.20
2018-06-15T10:12:09.815Z,41.00
2018-06-15T10:14:38.082Z,41.70
2018-06-15T10:17:06.339Z,41.10
2018-06-15T10:19:34.606Z,41.20
2018-06-15T10:22:03.817Z,41.30
2018-06-15T10:24:32.059Z,41.20
2018-06-15T10:27:00.396Z,40.30
2018-06-15T10:29:28.677Z,40.60
2018-06-15T10:31:57.685Z,40.10
2018-06-15T10:34:25.938Z,40.10
2018-06-15T10:36:54.254Z,41.80
2018-06-15T10:39:22.589Z,42.80
2018-06-15T10:41:50.725Z,43.60
2018-06-15T10:44:19.758Z,41.00
2018-06-15T10:46:48.027Z,41.00
2018-06-15T10:49:16.282Z,42.30
2018-06-15T10:51:44.560Z,41.10
2018-06-15T10:54:12.808Z,41.10
2018-06-15T10:56:41.832Z,43.30
2018-06-15T10:59:10.089Z,43.20
2018-06-15T11:01:38.353Z,41.10
2018-06-15T11:04:07.379Z,36.80
2018-06-15T11:06:35.639Z,36.90
2018-06-15T11:09:03.912Z,37.40
2018-06-15T11:11:32.931Z,39.10
2018-06-15T11:14:01.174Z,39.10
2018-06-15T11:16:29.435Z,39.50
2018-06-15T11:18:58.468Z,38.60
2018-06-15T11:21:26.710Z,38.60
2018-06-15T11:23:54.963Z,38.90
2018-06-15T11:26:23.825Z,39.10
2018-06-15T11:28:52.428Z,40.40
2018-06-15T11:31:20.683Z,39.70
2018-06-15T11:33:48.967Z,43.30
2018-06-15T11:36:17.210Z,39.10
2018-06-15T11:38:45.578Z,38.00
2018-06-15T11:41:13.903Z,39.20
2018-06-15T11:43:42.850Z,39.80
2018-06-15T11:46:11.115Z,39.80
2018-06-15T11:48:39.371Z,37.30
2018-06-15T11:51:08.407Z,39.90
2018-06-15T11:53:36.652Z,39.80
2018-06-15T11:56:04.910Z,37.80
2018-06-15T11:58:33.939Z,39.30
2018-06-15T12:01:02.193Z,39.00
2018-06-15T12:03:31.196Z,36.20
2018-06-15T12:05:59.465Z,36.20
2018-06-15T12:08:27.704Z,37.90
2018-06-15T12:10:55.976Z,36.50
2018-06-15T12:13:24.239Z,36.40
2018-06-15T12:15:52.692Z,35.90
2018-06-15T12:18:20.944Z,37.90
2018-06-15T12:20:49.212Z,37.50
2018-06-15T12:23:17.472Z,37.50
2018-06-15T12:25:46.498Z,39.10
2018-06-15T12:28:14.743Z,38.90
2018-06-15T12:30:43.801Z,38.70
2018-06-15T12:33:12.042Z,38.70
2018-06-15T12:35:40.279Z,37.60
2018-06-15T12:38:08.567Z,40.20
2018-06-15T12:40:37.071Z,37.80
2018-06-15T12:43:05.307Z,39.10
2018-06-15T12:45:34.320Z,39.60
2018-06-15T12:48:02.590Z,39.60
2018-06-15T12:50:31.603Z,38.60
2018-06-15T12:52:59.865Z,38.60
2018-06-15T12:55:28.123Z,41.60
2018-06-15T12:57:57.161Z,38.30
2018-06-15T13:00:25.408Z,38.40
2018-06-15T13:02:53.675Z,40.10
2018-06-15T13:05:22.706Z,40.20
2018-06-15T13:07:50.942Z,40.20
2018-06-15T13:10:19.216Z,38.90
2018-06-15T13:12:48.231Z,39.60
2018-06-15T13:15:16.486Z,39.50
2018-06-15T13:17:44.742Z,43.10
2018-06-15T13:20:12.994Z,41.50
2018-06-15T13:22:41.248Z,40.40
2018-06-15T13:25:10.290Z,40.40
2018-06-15T13:27:39.304Z,40.30
2018-06-15T13:30:07.551Z,40.20
2018-06-15T13:32:35.818Z,40.40
2018-06-15T13:35:04.071Z,39.30
2018-06-15T13:37:32.355Z,37.80
2018-06-15T13:40:00.611Z,36.60
2018-06-15T13:42:28.864Z,36.70
2018-06-15T13:44:57.166Z,36.80
2018-06-15T13:47:25.414Z,40.40
2018-06-15T13:49:53.678Z,37.80
2018-06-15T13:52:21.930Z,39.70
2018-06-15T13:54:50.965Z,40.40
2018-06-15T13:57:19.220Z,40.40
2018-06-15T13:59:47.737Z,40.10
2018-06-15T14:02:15.990Z,41.10
2018-06-15T14:04:44.242Z,43.10
2018-06-15T14:07:12.580Z,45.20
2018-06-15T14:09:40.846Z,42.40
2018-06-15T14:12:09.148Z,42.80
2018-06-15T14:14:38.149Z,42.90
2018-06-15T14:17:07.172Z,41.60
2018-06-15T14:19:35.423Z,41.50
2018-06-15T14:22:04.460Z,41.70
2018-06-15T14:24:32.708Z,41.70
2018-06-15T14:27:00.974Z,41.60
2018-06-15T14:29:29.258Z,42.60
2018-06-15T14:31:58.420Z,40.00
2018-06-15T14:34:26.641Z,39.90
2018-06-15T14:36:54.890Z,39.20
2018-06-15T14:39:23.918Z,41.80
2018-06-15T14:41:52.190Z,41.80
2018-06-15T14:44:20.458Z,41.80
2018-06-15T14:46:48.721Z,42.00
2018-06-15T14:49:16.977Z,38.60
2018-06-15T14:51:45.698Z,39.30
2018-06-15T14:54:13.957Z,38.60
2018-06-15T14:56:42.324Z,38.10
2018-06-15T14:59:11.385Z,39.50
2018-06-15T15:01:39.739Z,39.30
2018-06-15T15:04:08.009Z,41.30
2018-06-15T15:06:36.259Z,39.20
2018-06-15T15:09:04.513Z,39.70
2018-06-15T15:11:33.546Z,39.80
2018-06-15T15:14:02.572Z,38.00
2018-06-15T15:16:30.834Z,38.00
2018-06-15T15:18:59.099Z,36.90
2018-06-15T15:21:27.363Z,39.90
2018-06-15T15:23:55.599Z,38.70
2018-06-15T15:26:24.007Z,38.10
2018-06-15T15:28:52.338Z,36.20
2018-06-15T15:31:21.384Z,36.20
2018-06-15T15:33:49.659Z,36.10
2018-06-15T15:36:17.972Z,36.10
2018-06-15T15:38:46.545Z,36.50
2018-06-15T15:41:14.782Z,34.80
2018-06-15T15:43:43.040Z,36.20
2018-06-15T15:46:11.337Z,35.90
2018-06-15T15:48:39.808Z,35.00
2018-06-15T15:51:08.063Z,34.20
2018-06-15T15:53:36.313Z,36.90
2018-06-15T15:56:04.584Z,37.50
2018-06-15T15:58:33.639Z,37.30
2018-06-15T16:01:01.895Z,37.20
2018-06-15T16:03:30.141Z,37.10
2018-06-15T16:05:59.170Z,39.30
2018-06-15T16:08:27.430Z,39.10
2018-06-15T16:10:55.683Z,37.80
2018-06-15T16:13:24.799Z,39.20
2018-06-15T16:15:53.045Z,39.20
2018-06-15T16:18:21.303Z,37.90
2018-06-15T16:20:49.572Z,37.80
2018-06-15T16:23:17.815Z,38.80
2018-06-15T16:25:46.080Z,37.20
2018-06-15T16:28:14.329Z,36.50
2018-06-15T16:30:42.601Z,37.00
2018-06-15T16:33:10.825Z,38.50
2018-06-15T16:35:39.072Z,37.90
2018-06-15T16:38:07.329Z,37.80
2018-06-15T16:40:36.343Z,37.50
2018-06-15T16:43:04.663Z,37.50
2018-06-15T16:45:32.867Z,37.60
2018-06-15T16:48:01.876Z,37.40
2018-06-15T16:50:30.145Z,37.30
2018-06-15T16:52:59.153Z,37.00
2018-06-15T16:55:27.399Z,36.90
2018-06-15T16:57:56.426Z,36.90
2018-06-15T17:00:24.686Z,36.90
2018-06-15T17:02:52.936Z,38.80
2018-06-15T17:05:21.956Z,35.90
2018-06-15T17:07:50.224Z,36.00
2018-06-15T17:10:18.487Z,38.00
2018-06-15T17:12:47.498Z,37.20
2018-06-15T17:15:15.765Z,37.20
2018-06-15T17:17:44.782Z,39.00
2018-06-15T17:20:13.055Z,39.00
2018-06-15T17:22:41.313Z,36.80
2018-06-15T17:25:09.573Z,36.40
2018-06-15T17:27:37.988Z,38.20
2018-06-15T17:30:06.242Z,38.10
2018-06-15T17:32:34.495Z,38.80
2018-06-15T17:35:03.540Z,40.10
2018-06-15T17:37:31.785Z,40.00
2018-06-15T17:40:00.043Z,39.30
2018-06-15T17:42:28.291Z,39.60
2018-06-15T17:44:56.551Z,39.10
2018-06-15T17:47:24.796Z,39.00
2018-06-15T17:49:53.167Z,40.10
2018-06-15T17:52:21.414Z,41.30
2018-06-15T17:54:50.441Z,41.30
2018-06-15T17:57:18.710Z,41.30
2018-06-15T17:59:47.013Z,40.20
2018-06-15T18:02:16.000Z,41.20
2018-06-15T18:04:44.237Z,41.20
2018-06-15T18:07:13.243Z,41.20
2018-06-15T18:09:41.510Z,41.20
2018-06-15T18:12:10.515Z,41.20
2018-06-15T18:14:38.766Z,41.20
2018-06-15T18:17:07.803Z,40.90
2018-06-15T18:19:36.071Z,40.70
2018-06-15T18:22:04.335Z,41.20
2018-06-15T18:24:32.594Z,41.10
2018-06-15T18:27:01.609Z,41.10
2018-06-15T18:29:29.846Z,41.00
2018-06-15T18:31:59.091Z,42.50
2018-06-15T18:34:27.346Z,41.70
2018-06-15T18:36:55.671Z,42.10
2018-06-15T18:39:24.171Z,42.60
2018-06-15T18:41:52.428Z,42.20
2018-06-15T18:44:20.675Z,43.30
2018-06-15T18:46:48.943Z,43.10
2018-06-15T18:49:17.197Z,43.90
2018-06-15T18:51:45.463Z,43.20
2018-06-15T18:54:14.542Z,43.70
2018-06-15T18:56:42.790Z,43.70
2018-06-15T18:59:11.051Z,44.30
2018-06-15T19:01:39.308Z,43.80
2018-06-15T19:04:07.739Z,44.10
2018-06-15T19:06:35.982Z,44.20
2018-06-15T19:09:04.236Z,45.10
2018-06-15T19:11:32.510Z,46.50
2018-06-15T19:14:00.747Z,47.00
2018-06-15T19:16:29.767Z,46.90
2018-06-15T19:18:58.043Z,46.90
2018-06-15T19:21:26.308Z,47.60
2018-06-15T19:23:54.596Z,47.10
2018-06-15T19:26:22.981Z,46.70
2018-06-15T19:28:51.273Z,46.60
2018-06-15T19:31:20.254Z,46.60
2018-06-15T19:33:48.530Z,46.60
2018-06-15T19:36:16.785Z,46.60
2018-06-15T19:38:45.697Z,46.60
2018-06-15T19:41:13.962Z,47.30
2018-06-15T19:43:42.434Z,48.60
2018-06-15T19:46:10.687Z,48.70
2018-06-15T19:48:39.700Z,49.10
2018-06-15T19:51:07.975Z,49.10
2018-06-15T19:53:36.232Z,49.60
2018-06-15T19:56:05.260Z,51.00
2018-06-15T19:58:33.736Z,50.80
2018-06-15T20:01:01.995Z,51.40
2018-06-15T20:03:30.239Z,51.30
2018-06-15T20:05:58.497Z,51.20
2018-06-15T20:08:26.752Z,52.30
2018-06-15T20:10:55.019Z,52.70
2018-06-15T20:13:23.269Z,53.90
2018-06-15T20:15:51.528Z,52.80
2018-06-15T20:18:20.561Z,53.70
2018-06-15T20:20:48.820Z,53.70
2018-06-15T20:23:17.093Z,54.10
2018-06-15T20:25:45.335Z,54.30
2018-06-15T20:28:14.455Z,54.50
2018-06-15T20:30:42.743Z,54.50
2018-06-15T20:33:11.008Z,55.10
2018-06-15T20:35:40.030Z,56.20
2018-06-15T20:38:08.272Z,56.20
2018-06-15T20:40:36.520Z,56.00
2018-06-15T20:43:05.664Z,56.00
2018-06-15T20:45:33.897Z,56.00
2018-06-15T20:48:02.903Z,56.10
2018-06-15T20:50:31.187Z,56.00
2018-06-15T20:52:59.482Z,56.00
2018-06-15T20:55:28.494Z,56.80
2018-06-15T20:57:56.755Z,56.50
2018-06-15T21:00:25.003Z,56.50
2018-06-15T21:02:53.268Z,56.00
2018-06-15T21:05:22.274Z,56.40
2018-06-15T21:07:50.528Z,56.40
2018-06-15T21:10:19.565Z,56.30
2018-06-15T21:12:47.829Z,56.10
2018-06-15T21:15:16.911Z,56.60
2018-06-15T21:17:45.160Z,56.40
2018-06-15T21:20:14.457Z,57.40
2018-06-15T21:22:42.720Z,57.40
2018-06-15T21:25:10.980Z,57.50
2018-06-15T21:27:39.240Z,57.70
2018-06-15T21:30:07.619Z,57.50
2018-06-15T21:32:35.907Z,57.60
2018-06-15T21:35:08.703Z,57.80
2018-06-15T21:37:38.278Z,58.00
2018-06-15T21:40:06.524Z,58.70
2018-06-15T21:42:34.942Z,57.70
2018-06-15T21:45:03.186Z,58.00
2018-06-15T21:47:31.447Z,58.30
2018-06-15T21:49:59.716Z,58.20
2018-06-15T21:52:27.979Z,58.20
2018-06-15T21:54:57.001Z,58.00
2018-06-15T21:57:25.272Z,58.00
2018-06-15T21:59:53.497Z,58.00
2018-06-15T22:02:21.799Z,58.60
2018-06-15T22:04:50.011Z,58.50
2018-06-15T22:07:18.308Z,57.80
2018-06-15T22:09:46.607Z,58.00
2018-06-15T22:12:14.927Z,58.60
2018-06-15T22:14:43.291Z,57.90
2018-06-15T22:17:11.575Z,58.10
2018-06-15T22:19:40.571Z,58.00
2018-06-15T22:22:08.839Z,58.00
2018-06-15T22:24:37.089Z,58.50
2018-06-15T22:27:06.132Z,58.10
2018-06-15T22:29:34.386Z,58.00
2018-06-15T22:32:02.705Z,58.00
2018-06-15T22:34:30.913Z,57.40
2018-06-15T22:36:59.166Z,57.70
2018-06-15T22:39:28.221Z,58.40
2018-06-15T22:41:56.477Z,58.40
2018-06-15T22:44:24.728Z,58.80
2018-06-15T22:46:53.756Z,58.50
2018-06-15T22:49:22.008Z,58.50
2018-06-15T22:51:50.282Z,58.80
2018-06-15T22:54:18.539Z,58.90
2018-06-15T22:56:47.577Z,59.20
2018-06-15T22:59:15.820Z,59.00
2018-06-15T23:01:44.112Z,59.10
2018-06-15T23:04:13.118Z,58.80
2018-06-15T23:06:42.144Z,58.80
2018-06-15T23:09:10.406Z,58.80
2018-06-15T23:11:39.435Z,59.80
2018-06-15T23:14:08.499Z,59.90
2018-06-15T23:16:36.976Z,59.90
2018-06-15T23:19:05.233Z,59.90
2018-06-15T23:21:33.475Z,60.00
2018-06-15T23:24:02.509Z,60.00
2018-06-15T23:26:30.822Z,60.00
2018-06-15T23:28:59.877Z,59.90
2018-06-15T23:31:28.123Z,59.90
2018-06-15T23:33:57.147Z,59.30
2018-06-15T23:36:25.678Z,59.20
2018-06-15T23:38:54.696Z,59.10
2018-06-15T23:41:23.199Z,59.10
2018-06-15T23:43:51.459Z,59.60
2018-06-15T23:46:19.719Z,59.20
2018-06-15T23:48:48.003Z,59.00
2018-06-15T23:51:16.318Z,59.00
2018-06-15T23:53:44.783Z,58.70
2018-06-15T23:56:13.040Z,58.80
2018-06-15T23:58:41.301Z,58.80
